Time;durP1;ratioP1;P1;durP2;ratioP2;P2;SDS_P1;SDS_P2;PMS_P1;PMS_P2;Temp;Humidity;BMP_temperature;BMP_pressure;BME280_temperature;BME280_humidity;BME280_pressure;Samples;Min_cycle;Max_cycle;Signal;HPM_P1;HPM_P2
2023/08/04 00:00:22;;;;;;;;;0.00;0.00;;;;;21.14;47.77;98744.63;5064512;28;45484;-71
2023/08/04 00:02:48;;;;;;;;;0.00;0.00;;;;;21.20;47.81;98755.69;5064772;28;45521;-70
2023/08/04 00:05:13;;;;;;;;;0.00;0.00;;;;;21.22;47.35;98752.88;5071322;28;45420;-71
2023/08/04 00:07:39;;;;;;;;;0.00;0.00;;;;;21.25;47.75;98739.22;5071308;28;45494;-71
2023/08/04 00:10:05;;;;;;;;;0.00;0.00;;;;;21.30;47.09;98744.13;5068027;28;45460;-70
2023/08/04 00:12:31;;;;;;;;;0.00;0.00;;;;;21.33;47.09;98752.75;5070140;28;45313;-70
2023/08/04 00:14:56;;;;;;;;;0.80;0.00;;;;;21.32;46.86;98760.94;5074898;28;45717;-70
2023/08/04 00:17:22;;;;;;;;;0.00;0.00;;;;;21.29;47.31;98745.13;5072564;27;46420;-70
2023/08/04 00:19:47;;;;;;;;;0.00;0.00;;;;;21.28;47.18;98752.34;5075560;27;45431;-71
2023/08/04 00:22:12;;;;;;;;;0.00;0.00;;;;;21.26;47.32;98753.47;5073803;28;45327;-71
2023/08/04 00:24:38;;;;;;;;;0.00;0.00;;;;;21.25;47.46;98749.94;5067267;28;45357;-70
2023/08/04 00:27:03;;;;;;;;;0.00;0.00;;;;;21.24;47.47;98750.91;5075213;27;45423;-70
2023/08/04 00:29:29;;;;;;;;;0.00;0.00;;;;;21.22;47.12;98743.00;5061032;27;45412;-70
2023/08/04 00:31:54;;;;;;;;;0.00;0.00;;;;;21.19;47.42;98743.28;5075813;27;45437;-70
2023/08/04 00:34:20;;;;;;;;;0.00;0.00;;;;;21.17;47.19;98747.03;5063524;28;45486;-70
2023/08/04 00:36:46;;;;;;;;;0.00;0.00;;;;;21.16;47.85;98748.88;5074336;28;46763;-71
2023/08/04 00:39:13;;;;;;;;;0.00;0.00;;;;;21.15;47.45;98741.81;5072125;28;45496;-70
2023/08/04 00:41:39;;;;;;;;;0.00;0.00;;;;;21.16;47.19;98740.84;5076074;28;45425;-70
2023/08/04 00:44:05;;;;;;;;;0.00;0.00;;;;;21.16;48.03;98740.84;5072301;28;46424;-71
2023/08/04 00:46:31;;;;;;;;;0.00;0.00;;;;;21.13;48.10;98732.22;5075733;28;46616;-72
2023/08/04 00:48:59;;;;;;;;;0.00;0.00;;;;;21.12;47.77;98735.88;5073604;28;45447;-70
2023/08/04 00:51:25;;;;;;;;;0.00;0.00;;;;;21.09;48.32;98730.81;5075520;28;45499;-71
2023/08/04 00:53:51;;;;;;;;;0.00;0.00;;;;;21.06;47.89;98725.72;5067532;28;45663;-71
2023/08/04 00:56:16;;;;;;;;;0.00;0.00;;;;;21.01;47.55;98728.81;5075724;27;46491;-70
2023/08/04 00:58:42;;;;;;;;;0.00;0.00;;;;;21.01;47.55;98725.28;5068268;28;45440;-69
2023/08/04 01:01:07;;;;;;;;;0.00;0.00;;;;;20.99;48.33;98724.56;5075863;28;45472;-70
2023/08/04 01:03:34;;;;;;;;;0.25;0.00;;;;;20.98;48.47;98722.88;5065362;27;45753;-70
2023/08/04 01:06:05;;;;;;;;;0.00;0.00;;;;;20.94;49.30;98734.88;5065798;28;45523;-71
2023/08/04 01:08:34;;;;;;;;;0.80;0.00;;;;;20.91;48.58;98730.63;5066173;28;45564;-70
2023/08/04 01:11:12;;;;;;;;;0.00;0.00;;;;;20.88;48.39;98726.38;5072912;28;45503;-70
2023/08/04 01:13:39;;;;;;;;;0.00;0.00;;;;;20.85;48.96;98725.78;5070176;27;45314;-70
2023/08/04 01:16:07;;;;;;;;;0.00;0.00;;;;;20.80;48.88;98730.69;5090975;27;47191;-70
2023/08/04 01:18:33;;;;;;;;;0.20;0.00;;;;;20.76;49.49;98738.19;5065924;28;45474;-71
2023/08/04 01:21:04;;;;;;;;;0.00;0.00;;;;;20.71;49.15;98735.06;5065370;28;45382;-70
2023/08/04 01:23:29;;;;;;;;;0.00;0.00;;;;;20.67;49.92;98722.91;5063631;27;45555;-70
2023/08/04 01:25:55;;;;;;;;;0.00;0.00;;;;;20.65;49.48;98734.72;5067815;28;47063;-69
2023/08/04 01:28:21;;;;;;;;;0.00;0.00;;;;;20.63;50.08;98723.28;5069003;27;45482;-70
2023/08/04 01:30:50;;;;;;;;;0.00;0.00;;;;;20.61;50.37;98726.09;5073277;28;45352;-71
2023/08/04 01:33:16;;;;;;;;;0.00;0.00;;;;;20.60;49.44;98727.13;5069949;28;45472;-70
2023/08/04 01:35:42;;;;;;;;;0.80;0.00;;;;;20.61;49.72;98739.50;5075091;27;45571;-70
2023/08/04 01:38:09;;;;;;;;;0.80;0.00;;;;;20.59;49.94;98727.25;5071263;27;45399;-71
2023/08/04 01:40:34;;;;;;;;;0.00;0.00;;;;;20.58;50.09;98731.75;5075104;28;45400;-70
2023/08/04 01:43:00;;;;;;;;;0.00;0.00;;;;;20.57;50.08;98729.22;5073454;28;45372;-70
2023/08/04 01:45:25;;;;;;;;;0.00;0.00;;;;;20.54;50.28;98744.56;5073413;28;46010;-71
2023/08/04 01:47:51;;;;;;;;;0.00;0.00;;;;;20.54;50.51;98730.31;5068573;28;45620;-71
2023/08/04 01:50:17;;;;;;;;;1.80;0.00;;;;;20.51;50.49;98742.16;5063702;28;45470;-73
2023/08/04 01:52:42;;;;;;;;;0.00;0.00;;;;;20.49;50.70;98736.06;5070030;28;45546;-71
2023/08/04 01:55:07;;;;;;;;;0.00;0.00;;;;;20.46;50.94;98733.66;5079522;27;47086;-70
2023/08/04 01:57:33;;;;;;;;;0.00;0.00;;;;;20.45;50.76;98741.81;5071546;27;45598;-71
2023/08/04 01:59:58;;;;;;;;;0.00;0.00;;;;;20.43;51.29;98739.28;5070942;28;45985;-70
2023/08/04 02:02:24;;;;;;;;;0.00;0.00;;;;;20.45;52.74;98758.72;5070938;28;45455;-71
2023/08/04 02:04:49;;;;;;;;;2.50;0.00;;;;;20.43;51.52;98754.53;5069744;28;46080;-70
2023/08/04 02:07:14;;;;;;;;;0.00;0.00;;;;;20.41;51.05;98746.63;5068906;28;45371;-70
2023/08/04 02:09:40;;;;;;;;;0.00;0.00;;;;;20.42;51.12;98752.81;5063610;27;45407;-70
2023/08/04 02:12:06;;;;;;;;;0.00;0.00;;;;;20.40;52.90;98752.94;5069475;28;45371;-70
2023/08/04 02:14:33;;;;;;;;;0.00;0.00;;;;;20.39;52.18;98755.75;5065836;28;45524;-71
2023/08/04 02:16:58;;;;;;;;;0.20;0.00;;;;;20.39;51.22;98755.75;5072814;28;45523;-70
2023/08/04 02:19:24;;;;;;;;;0.75;0.00;;;;;20.40;51.00;98744.91;5078745;27;45460;-70
2023/08/04 02:21:49;;;;;;;;;0.00;0.00;;;;;20.39;51.50;98764.63;5072044;28;45843;-70
2023/08/04 02:24:15;;;;;;;;;0.00;0.00;;;;;20.36;52.41;98758.66;5070145;28;45474;-71
2023/08/04 02:26:44;;;;;;;;;0.00;0.00;;;;;20.34;51.89;98756.09;5074627;27;45910;-71
2023/08/04 02:29:09;;;;;;;;;0.00;0.00;;;;;20.32;51.91;98757.22;5066139;28;45420;-71
2023/08/04 02:31:35;;;;;;;;;0.00;0.00;;;;;20.33;51.64;98756.25;5072727;28;45618;-70
2023/08/04 02:34:00;;;;;;;;;0.00;0.00;;;;;20.31;51.35;98748.34;5068519;27;45474;-70
2023/08/04 02:36:25;;;;;;;;;0.50;0.50;;;;;20.32;51.58;98749.19;5073785;27;45486;-70
2023/08/04 02:38:51;;;;;;;;;0.00;0.00;;;;;20.31;51.58;98751.00;5070991;28;45471;-70
2023/08/04 02:41:16;;;;;;;;;0.00;0.00;;;;;20.32;52.96;98744.69;5073123;28;45556;-70
2023/08/04 02:43:42;;;;;;;;;0.00;0.00;;;;;20.32;52.58;98743.81;5069435;28;45533;-70
2023/08/04 02:46:10;;;;;;;;;0.75;0.00;;;;;20.34;53.35;98742.72;5068132;27;45446;-70
2023/08/04 02:48:35;;;;;;;;;0.00;0.00;;;;;20.37;54.44;98747.84;5066812;27;45462;-70
2023/08/04 02:51:11;;;;;;;;;0.50;0.00;;;;;20.36;53.77;98753.31;5072634;28;45997;-70
2023/08/04 02:53:38;;;;;;;;;0.00;0.00;;;;;20.35;54.62;98757.81;5070879;28;45439;-70
2023/08/04 02:56:09;;;;;;;;;0.20;0.00;;;;;20.36;53.18;98761.34;5064444;27;45461;-70
2023/08/04 02:58:34;;;;;;;;;0.00;0.00;;;;;20.34;52.48;98755.25;5069895;27;45429;-70
2023/08/04 03:01:00;;;;;;;;;0.00;0.00;;;;;20.28;52.45;98764.66;5083616;27;45521;-69
2023/08/04 03:03:25;;;;;;;;;1.50;0.00;;;;;20.20;53.09;98762.66;5073978;28;47358;-69
2023/08/04 03:05:50;;;;;;;;;1.00;1.00;;;;;20.13;53.01;98750.75;5069078;28;45494;-69
2023/08/04 03:08:16;;;;;;;;;0.25;0.00;;;;;20.06;53.31;98751.41;5070318;28;45422;-69
2023/08/04 03:10:42;;;;;;;;;0.00;0.00;;;;;20.00;54.82;98766.16;5071130;27;45495;-69
2023/08/04 03:13:10;;;;;;;;;1.00;0.00;;;;;19.90;54.96;98761.72;5069207;28;45511;-69
2023/08/04 03:15:36;;;;;;;;;0.40;0.40;;;;;19.77;56.37;98767.25;5076717;28;45402;-70
2023/08/04 03:18:02;;;;;;;;;0.00;0.00;;;;;19.61;56.96;98770.31;5068401;28;45360;-69
2023/08/04 03:20:39;;;;;;;;;0.25;0.00;;;;;19.45;57.82;98764.50;5073164;28;45498;-69
2023/08/04 03:23:05;;;;;;;;;1.00;1.00;;;;;19.31;59.16;98770.13;5073798;28;45404;-70
2023/08/04 03:25:31;;;;;;;;;0.80;0.80;;;;;19.18;58.06;98768.47;5073129;28;45392;-70
2023/08/04 03:27:56;;;;;;;;;0.80;0.80;;;;;19.06;61.21;98774.81;5075004;28;45325;-71
2023/08/04 03:30:22;;;;;;;;;1.00;1.00;;;;;18.94;62.19;98797.16;5074536;28;45676;-70
2023/08/04 03:32:47;;;;;;;;;1.00;0.75;;;;;18.80;63.11;98778.69;5075171;28;46522;-70
2023/08/04 03:35:12;;;;;;;;;1.00;1.00;;;;;18.67;62.96;98785.97;5075713;28;45515;-70
2023/08/04 03:37:39;;;;;;;;;0.00;0.00;;;;;18.55;64.09;98781.56;5071760;28;45648;-69
2023/08/04 03:40:06;;;;;;;;;0.80;0.80;;;;;18.44;65.69;98788.59;5076888;28;45502;-71
2023/08/04 03:42:31;;;;;;;;;1.00;0.00;;;;;18.38;66.10;98788.22;5073603;27;46440;-70
2023/08/04 03:44:56;;;;;;;;;1.00;0.00;;;;;18.30;63.91;98775.47;5065990;28;45458;-69
2023/08/04 03:47:22;;;;;;;;;0.25;0.25;;;;;18.30;64.80;98777.28;5072038;28;45375;-68
2023/08/04 03:49:47;;;;;;;;;0.00;0.00;;;;;18.30;65.51;98791.47;5067382;28;45388;-70
2023/08/04 03:52:13;;;;;;;;;0.00;0.00;;;;;18.30;64.82;98779.94;5075931;28;46138;-69
2023/08/04 03:54:38;;;;;;;;;1.00;0.00;;;;;18.30;64.59;98777.28;5076071;28;45494;-69
2023/08/04 03:57:04;;;;;;;;;1.00;1.00;;;;;18.32;64.53;98778.84;5075076;27;46166;-71
2023/08/04 03:59:29;;;;;;;;;0.00;0.00;;;;;18.33;65.99;98783.22;5072123;28;45371;-70
2023/08/04 04:01:55;;;;;;;;;0.00;0.00;;;;;18.34;65.72;98778.75;5075714;28;46548;-70
2023/08/04 04:04:20;;;;;;;;;0.75;0.75;;;;;18.31;65.59;98785.16;5072439;28;45392;-70
2023/08/04 04:06:45;;;;;;;;;0.50;0.50;;;;;18.29;64.45;98779.09;5076263;28;45775;-69
2023/08/04 04:09:11;;;;;;;;;2.00;0.75;;;;;18.31;65.43;98781.66;5071018;28;45652;-70
2023/08/04 04:11:37;;;;;;;;;1.25;0.00;;;;;18.35;65.62;98791.13;5076254;28;46547;-70
2023/08/04 04:14:02;;;;;;;;;0.00;0.00;;;;;18.36;66.53;98784.81;5073060;27;45466;-70
2023/08/04 04:16:30;;;;;;;;;2.00;0.00;;;;;18.36;65.10;98782.16;5075852;28;45354;-70
2023/08/04 04:18:55;;;;;;;;;0.00;0.00;;;;;18.37;65.04;98786.53;5067267;27;45427;-70
2023/08/04 04:21:21;;;;;;;;;1.00;0.00;;;;;18.33;65.25;98783.22;5071576;28;45495;-70
2023/08/04 04:23:46;;;;;;;;;0.00;0.00;;;;;18.36;64.82;98777.66;5062003;28;45372;-70
2023/08/04 04:26:12;;;;;;;;;1.00;1.00;;;;;18.37;65.01;98778.50;5075914;27;45500;-70
2023/08/04 04:28:37;;;;;;;;;0.00;0.00;;;;;18.37;64.88;98781.19;5071073;27;45594;-70
2023/08/04 04:31:03;;;;;;;;;0.00;0.00;;;;;18.39;64.66;98780.09;5075693;28;46054;-70
2023/08/04 04:33:28;;;;;;;;;0.00;0.00;;;;;18.43;64.42;98775.38;5068735;28;45289;-70
2023/08/04 04:35:54;;;;;;;;;1.00;1.00;;;;;18.46;64.18;98773.31;5070964;28;45329;-70
2023/08/04 04:38:19;;;;;;;;;0.00;0.00;;;;;18.52;64.20;98771.97;5073631;28;45576;-70
2023/08/04 04:40:54;;;;;;;;;0.00;0.00;;;;;18.58;64.29;98784.00;5075294;28;45844;-70
2023/08/04 04:43:20;;;;;;;;;1.00;1.00;;;;;18.59;64.28;98778.59;5073337;27;45467;-70
2023/08/04 04:45:49;;;;;;;;;1.00;1.00;;;;;18.58;65.25;98786.69;5075528;27;45416;-70
2023/08/04 04:48:15;;;;;;;;;0.40;0.00;;;;;18.56;64.57;98780.59;5072685;28;45424;-70
2023/08/04 04:50:40;;;;;;;;;0.75;0.75;;;;;18.58;64.30;98792.88;5071268;28;45916;-70
2023/08/04 04:53:05;;;;;;;;;0.00;0.00;;;;;18.62;63.95;98783.66;5072323;28;45416;-69
2023/08/04 04:55:31;;;;;;;;;1.00;1.00;;;;;18.62;64.96;98782.81;5075149;28;45420;-70
2023/08/04 04:57:56;;;;;;;;;2.00;0.75;;;;;18.62;64.25;98786.34;5074101;28;45426;-70
2023/08/04 05:00:21;;;;;;;;;0.00;0.00;;;;;18.67;62.38;98780.63;5065421;28;46180;-70
2023/08/04 05:02:47;;;;;;;;;0.00;0.00;;;;;18.77;62.37;98778.94;5071489;27;45366;-70
2023/08/04 05:05:12;;;;;;;;;0.00;0.00;;;;;18.89;61.46;98780.66;5069074;28;45356;-71
2023/08/04 05:07:38;;;;;;;;;0.00;0.00;;;;;18.97;61.31;98775.53;5070052;28;45371;-71
2023/08/04 05:10:03;;;;;;;;;0.00;0.00;;;;;19.04;61.17;98776.75;5069576;28;46126;-67
2023/08/04 05:12:29;;;;;;;;;0.50;0.50;;;;;19.14;60.57;98777.69;5071610;27;45491;-67
2023/08/04 05:14:54;;;;;;;;;0.00;0.00;;;;;19.21;60.54;98780.75;5066300;28;45468;-67
2023/08/04 05:17:19;;;;;;;;;1.00;1.00;;;;;19.24;60.50;98783.19;5079294;27;45555;-67
2023/08/04 05:19:45;;;;;;;;;3.25;0.00;;;;;19.29;59.94;98785.44;5067269;27;48036;-68
2023/08/04 05:22:10;;;;;;;;;0.00;0.00;;;;;19.36;59.28;98774.16;5072655;28;45453;-67
2023/08/04 05:24:36;;;;;;;;;0.00;0.00;;;;;19.40;59.43;98772.94;5065355;28;45440;-67
2023/08/04 05:27:02;;;;;;;;;0.00;0.00;;;;;19.41;59.09;98768.44;5073419;27;45532;-67
2023/08/04 05:29:28;;;;;;;;;0.40;0.00;;;;;19.40;59.23;98770.25;5068336;28;45552;-67
2023/08/04 05:31:53;;;;;;;;;0.75;0.50;;;;;19.39;58.70;98763.22;5069941;28;45395;-66
2023/08/04 05:34:19;;;;;;;;;0.75;0.00;;;;;19.38;58.65;98760.66;5070767;28;45465;-66
2023/08/04 05:36:44;;;;;;;;;0.00;0.00;;;;;19.36;59.05;98766.13;5074362;27;45524;-66
2023/08/04 05:39:09;;;;;;;;;0.00;0.00;;;;;19.35;59.02;98764.44;5058319;28;45529;-67
2023/08/04 05:41:35;;;;;;;;;0.75;0.00;;;;;19.33;59.03;98779.75;5059590;28;45377;-67
2023/08/04 05:44:00;;;;;;;;;0.00;0.00;;;;;19.31;59.63;98773.66;5058659;28;45566;-68
2023/08/04 05:46:25;;;;;;;;;3.00;0.00;;;;;19.29;59.77;98767.59;5062957;28;45688;-67
2023/08/04 05:48:52;;;;;;;;;0.00;0.00;;;;;19.30;58.97;98771.97;5064622;28;47249;-68
2023/08/04 05:51:17;;;;;;;;;0.75;0.00;;;;;19.31;58.63;98765.66;5063347;28;45388;-67
2023/08/04 05:53:43;;;;;;;;;0.00;0.00;;;;;19.33;58.27;98776.22;5063834;28;45412;-67
2023/08/04 05:56:09;;;;;;;;;0.00;0.00;;;;;19.33;58.46;98774.41;5070435;28;45487;-67
2023/08/04 05:58:34;;;;;;;;;1.75;0.00;;;;;19.34;58.50;98769.91;5061577;28;45452;-67
2023/08/04 06:00:59;;;;;;;;;0.00;0.00;;;;;19.36;58.39;98778.66;5072242;28;45367;-67
2023/08/04 06:03:25;;;;;;;;;0.00;0.00;;;;;19.41;58.05;98779.13;5068240;28;45504;-67
2023/08/04 06:05:50;;;;;;;;;0.00;0.00;;;;;19.45;58.35;98780.56;5064350;28;45431;-67
2023/08/04 06:08:15;;;;;;;;;0.00;0.00;;;;;19.52;57.28;98779.97;5066277;28;46306;-67
2023/08/04 06:10:41;;;;;;;;;0.75;0.00;;;;;19.59;56.31;98774.13;5064055;28;45660;-67
2023/08/04 06:13:06;;;;;;;;;1.75;0.00;;;;;19.65;56.57;98781.63;5068418;28;45871;-67
2023/08/04 06:15:32;;;;;;;;;0.00;0.00;;;;;19.69;56.61;98783.09;5067774;28;45585;-69
2023/08/04 06:17:57;;;;;;;;;0.75;0.00;;;;;19.69;57.02;98785.75;5072840;28;46476;-69
2023/08/04 06:20:23;;;;;;;;;0.00;0.00;;;;;19.64;56.94;98791.47;5064516;27;45744;-69
2023/08/04 06:22:48;;;;;;;;;0.00;0.00;;;;;19.63;55.24;98805.81;5061598;27;45557;-69
2023/08/04 06:25:16;;;;;;;;;0.00;0.00;;;;;19.61;55.53;98781.03;5063301;28;45507;-69
2023/08/04 06:27:42;;;;;;;;;0.00;0.00;;;;;19.60;56.53;98789.19;5080934;27;46507;-69
2023/08/04 06:30:08;;;;;;;;;0.00;0.00;;;;;19.56;56.86;98799.28;5064102;28;45482;-69
2023/08/04 06:32:34;;;;;;;;;0.00;0.00;;;;;19.52;56.38;98777.28;5060229;28;45389;-69
2023/08/04 06:34:59;;;;;;;;;0.00;0.00;;;;;19.52;56.29;98803.19;5074605;28;45624;-69
2023/08/04 06:37:25;;;;;;;;;0.00;0.00;;;;;19.51;56.01;98804.16;5074708;28;45376;-68
2023/08/04 06:39:50;;;;;;;;;0.00;0.00;;;;;19.52;56.22;98789.81;5070745;28;45427;-69
2023/08/04 06:42:17;;;;;;;;;0.00;0.00;;;;;19.56;56.09;98798.44;5065614;28;45466;-69
2023/08/04 06:44:42;;;;;;;;;0.00;0.00;;;;;19.57;56.40;98784.94;5069549;28;45675;-69
2023/08/04 06:47:08;;;;;;;;;1.00;0.00;;;;;19.55;55.61;98808.28;5072469;28;45490;-69
2023/08/04 06:49:34;;;;;;;;;0.00;0.00;;;;;19.58;56.28;98786.66;5074787;28;45396;-69
2023/08/04 06:52:00;;;;;;;;;0.00;0.00;;;;;19.58;55.73;98807.19;5072191;27;45580;-69
2023/08/04 06:54:26;;;;;;;;;0.00;0.00;;;;;19.58;56.01;98805.38;5073286;28;45773;-69
2023/08/04 06:56:51;;;;;;;;;0.00;0.00;;;;;19.58;56.09;98793.81;5067949;28;45610;-69
2023/08/04 06:59:17;;;;;;;;;0.00;0.00;;;;;19.60;55.31;98792.72;5070194;28;45446;-70
2023/08/04 07:01:42;;;;;;;;;0.00;0.00;;;;;19.64;55.12;98806.66;5072084;28;45357;-69
2023/08/04 07:04:08;;;;;;;;;0.00;0.00;;;;;19.64;55.07;98801.31;5070602;28;45371;-69
2023/08/04 07:06:34;;;;;;;;;0.00;0.00;;;;;19.63;55.56;98803.16;5070755;28;45952;-69
2023/08/04 07:08:59;;;;;;;;;0.40;0.00;;;;;19.64;55.27;98815.53;5066106;28;45428;-69
2023/08/04 07:11:24;;;;;;;;;0.00;0.00;;;;;19.66;55.66;98810.06;5074763;28;45687;-69
2023/08/04 07:13:50;;;;;;;;;0.00;0.00;;;;;19.68;55.96;98803.63;5070425;28;45437;-69
2023/08/04 07:16:15;;;;;;;;;0.00;0.00;;;;;19.67;56.26;98804.59;5071323;28;46253;-68
2023/08/04 07:18:41;;;;;;;;;0.00;0.00;;;;;19.65;56.25;98816.41;5073663;28;45523;-69
2023/08/04 07:21:11;;;;;;;;;0.00;0.00;;;;;19.58;56.37;98821.41;5076705;28;45684;-69
2023/08/04 07:23:38;;;;;;;;;0.00;0.00;;;;;19.50;56.57;98816.69;5071185;27;45413;-70
2023/08/04 07:26:04;;;;;;;;;0.00;0.00;;;;;19.43;57.06;98817.28;5073475;28;45474;-68
2023/08/04 07:28:33;;;;;;;;;0.00;0.00;;;;;19.32;57.30;98791.41;5070788;28;45444;-69
2023/08/04 07:31:05;;;;;;;;;0.00;0.00;;;;;19.23;57.70;98815.38;5076599;27;45399;-69
2023/08/04 07:33:31;;;;;;;;;0.00;0.00;;;;;19.12;59.18;98808.19;5067996;28;45405;-69
2023/08/04 07:35:57;;;;;;;;;0.00;0.00;;;;;19.06;59.57;98819.38;5074004;28;45419;-69
2023/08/04 07:38:23;;;;;;;;;0.20;0.00;;;;;18.99;59.58;98856.41;5071413;28;45493;-69
2023/08/04 07:40:49;;;;;;;;;0.00;0.00;;;;;18.92;59.96;98836.50;5070895;28;45511;-70
2023/08/04 07:43:15;;;;;;;;;0.00;0.00;;;;;18.81;60.49;98831.16;5070503;28;45379;-70
2023/08/04 07:45:41;;;;;;;;;0.00;0.00;;;;;18.70;61.59;98842.69;5066905;28;46507;-69
2023/08/04 07:48:06;;;;;;;;;0.00;0.00;;;;;18.61;62.03;98863.88;5074019;27;45352;-69
2023/08/04 07:50:35;;;;;;;;;0.00;0.00;;;;;18.54;62.23;98817.25;5065722;28;45372;-68
2023/08/04 07:53:00;;;;;;;;;0.00;0.00;;;;;18.49;63.49;98826.47;5067939;28;45499;-69
2023/08/04 07:55:26;;;;;;;;;0.00;0.00;;;;;18.44;63.12;98819.75;5062862;28;45992;-68
2023/08/04 07:57:51;;;;;;;;;0.00;0.00;;;;;18.40;63.92;98853.88;5073368;28;45303;-70
2023/08/04 08:00:16;;;;;;;;;1.00;0.00;;;;;18.33;64.22;98838.44;5070820;28;45589;-69
2023/08/04 08:02:42;;;;;;;;;0.00;0.00;;;;;18.30;64.59;98826.16;5072352;28;45407;-69
2023/08/04 08:05:08;;;;;;;;;0.00;0.00;;;;;18.35;65.13;98840.03;5070848;28;48100;-70
2023/08/04 08:07:34;;;;;;;;;0.00;0.00;;;;;18.41;64.59;98858.25;5082275;27;45877;-71
2023/08/04 08:09:59;;;;;;;;;0.00;0.00;;;;;18.46;64.77;98868.56;5073908;28;45553;-69
2023/08/04 08:12:25;;;;;;;;;0.00;0.00;;;;;18.49;65.31;98844.28;5073331;28;45378;-69
2023/08/04 08:14:50;;;;;;;;;0.75;0.00;;;;;18.49;66.00;98828.28;5057574;28;46407;-69
2023/08/04 08:17:15;;;;;;;;;1.00;0.00;;;;;18.53;65.15;98845.78;5070816;28;45486;-69
2023/08/04 08:19:41;;;;;;;;;0.00;0.00;;;;;18.58;65.33;98834.75;5060719;28;45756;-68
2023/08/04 08:22:06;;;;;;;;;0.00;0.00;;;;;18.54;66.39;98873.31;5075485;27;45399;-69
2023/08/04 08:24:32;;;;;;;;;0.00;0.00;;;;;18.46;66.52;98864.06;5071663;28;48082;-69
2023/08/04 08:26:57;;;;;;;;;0.00;0.00;;;;;18.37;67.32;98878.13;5070646;28;45680;-68
2023/08/04 08:29:22;;;;;;;;;1.00;0.00;;;;;18.29;67.54;98859.16;5067820;28;45390;-69
2023/08/04 08:31:47;;;;;;;;;0.00;0.00;;;;;18.24;67.00;98882.69;5075221;28;45593;-69
2023/08/04 08:34:13;;;;;;;;;0.00;0.00;;;;;18.13;68.06;98885.28;5066924;27;45704;-68
2023/08/04 08:36:38;;;;;;;;;0.00;0.00;;;;;18.02;68.62;98906.59;5075422;27;45373;-69
2023/08/04 08:39:04;;;;;;;;;0.00;0.00;;;;;17.89;69.48;98911.13;5068531;28;45450;-69
2023/08/04 08:41:29;;;;;;;;;0.00;0.00;;;;;17.78;70.82;98867.41;5070738;28;45374;-68
2023/08/04 08:43:54;;;;;;;;;0.00;0.00;;;;;17.72;71.56;98875.03;5066688;28;45730;-69
2023/08/04 08:46:20;;;;;;;;;0.00;0.00;;;;;17.66;72.83;98886.13;5066801;28;45364;-68
2023/08/04 08:48:46;;;;;;;;;0.00;0.00;;;;;17.65;72.34;98882.63;5065005;27;45344;-68
2023/08/04 08:51:18;;;;;;;;;0.00;0.00;;;;;17.57;74.15;98902.78;5075077;28;45447;-69
2023/08/04 08:53:47;;;;;;;;;0.00;0.00;;;;;17.48;75.71;98893.63;5069349;28;45491;-68
2023/08/04 08:56:16;;;;;;;;;0.00;0.00;;;;;17.42;75.87;98878.09;5065231;27;45523;-69
2023/08/04 08:58:42;;;;;;;;;0.00;0.00;;;;;17.44;75.15;98863.66;5072146;28;45427;-69
2023/08/04 09:01:08;;;;;;;;;0.00;0.00;;;;;17.48;74.16;98882.94;5066822;27;45574;-69
2023/08/04 09:03:35;;;;;;;;;0.00;0.00;;;;;17.57;74.16;98905.44;5071137;28;46338;-69
2023/08/04 09:06:01;;;;;;;;;0.00;0.00;;;;;17.64;73.47;98893.38;5074937;28;45341;-71
2023/08/04 09:08:30;;;;;;;;;0.00;0.00;;;;;17.63;73.74;98913.81;5066521;28;45486;-68
2023/08/04 09:10:57;;;;;;;;;0.00;0.00;;;;;17.57;75.24;98887.63;5067077;28;45549;-69
2023/08/04 09:13:23;;;;;;;;;0.00;0.00;;;;;17.47;76.33;98899.91;5072244;28;46674;-69
2023/08/04 09:15:59;;;;;;;;;0.00;0.00;;;;;17.37;76.20;98910.38;5075528;28;45365;-68
2023/08/04 09:18:29;;;;;;;;;0.00;0.00;;;;;17.35;76.77;98914.13;5072876;28;45411;-69
2023/08/04 09:21:09;;;;;;;;;0.00;0.00;;;;;17.39;76.34;98904.94;5074156;28;45411;-69
2023/08/04 09:23:36;;;;;;;;;0.00;0.00;;;;;17.40;76.65;98901.31;5064126;28;46341;-69
2023/08/04 09:26:01;;;;;;;;;0.00;0.00;;;;;17.46;75.49;98911.53;5071597;27;45469;-69
2023/08/04 09:28:27;;;;;;;;;0.00;0.00;;;;;17.52;75.33;98907.56;5066981;28;45456;-68
2023/08/04 09:31:00;;;;;;;;;0.00;0.00;;;;;17.56;76.38;98909.91;5069406;28;45528;-68
2023/08/04 09:33:26;;;;;;;;;0.00;0.00;;;;;17.60;76.26;98932.72;5067005;28;46451;-68
2023/08/04 09:36:03;;;;;;;;;1.00;1.00;;;;;17.62;75.35;98909.47;5069706;28;45606;-69
2023/08/04 09:38:28;;;;;;;;;0.20;0.20;;;;;17.61;75.59;98931.75;5065604;28;45433;-68
2023/08/04 09:41:20;;;;;;;;;1.00;1.00;;;;;17.66;75.57;98920.78;5071397;28;45469;-68
2023/08/04 09:43:49;;;;;;;;;0.80;0.80;;;;;17.71;74.78;98916.84;5071541;27;46665;-69
2023/08/04 09:46:16;;;;;;;;;0.80;0.80;;;;;17.77;74.16;98911.03;5074274;28;45446;-69
2023/08/04 09:48:42;;;;;;;;;0.00;0.00;;;;;17.82;75.81;98913.38;5073342;28;45344;-69
2023/08/04 09:51:09;;;;;;;;;1.25;1.25;;;;;17.86;76.10;98916.69;5074087;27;45372;-69
2023/08/04 09:53:48;;;;;;;;;1.00;1.00;;;;;17.88;76.82;98930.75;5077122;27;48002;-68
2023/08/04 09:56:17;;;;;;;;;0.40;0.40;;;;;17.95;76.93;98922.19;5071288;28;45447;-69
2023/08/04 09:58:44;;;;;;;;;0.40;0.40;;;;;17.99;76.21;98945.00;5069359;27;45413;-69
2023/08/04 10:01:11;;;;;;;;;0.20;0.20;;;;;17.97;75.85;98938.06;5072375;27;45353;-69
2023/08/04 10:03:39;;;;;;;;;0.00;0.00;;;;;17.93;76.14;98934.78;5070437;28;46714;-68
2023/08/04 10:06:05;;;;;;;;;0.00;0.00;;;;;17.94;75.24;98925.81;5072498;28;45478;-69
2023/08/04 10:08:32;;;;;;;;;0.00;0.00;;;;;17.95;75.20;98924.84;5069071;27;45894;-69
2023/08/04 10:10:58;;;;;;;;;0.00;0.00;;;;;17.95;75.82;98954.19;5068071;28;45324;-69
2023/08/04 10:13:32;;;;;;;;;0.00;0.00;;;;;17.95;75.40;98932.00;5083654;27;47815;-69
2023/08/04 10:16:00;;;;;;;;;0.00;0.00;;;;;17.94;75.49;98940.97;5069838;27;45305;-69
2023/08/04 10:18:25;;;;;;;;;0.00;0.00;;;;;17.94;75.56;98920.47;5072182;27;45570;-68
2023/08/04 10:20:52;;;;;;;;;0.00;0.00;;;;;17.97;74.04;98943.41;5080413;27;45471;-69
2023/08/04 10:23:18;;;;;;;;;0.00;0.00;;;;;17.97;74.53;98930.06;5057188;28;46343;-68
2023/08/04 10:25:59;;;;;;;;;0.00;0.00;;;;;18.03;74.20;98932.31;5072906;28;46022;-68
2023/08/04 10:28:25;;;;;;;;;0.00;0.00;;;;;18.06;74.05;98940.09;5073328;28;45563;-68
2023/08/04 10:31:04;;;;;;;;;0.00;0.00;;;;;18.09;74.68;98942.53;5072927;28;45393;-68
2023/08/04 10:33:30;;;;;;;;;1.00;0.00;;;;;18.05;74.89;98930.38;5071505;28;47618;-68
2023/08/04 10:36:08;;;;;;;;;0.00;0.00;;;;;17.98;75.62;98956.63;5073597;28;45432;-69
2023/08/04 10:38:49;;;;;;;;;0.00;0.00;;;;;17.86;76.84;98962.03;5068948;27;45429;-69
2023/08/04 10:41:15;;;;;;;;;0.00;0.00;;;;;17.71;78.77;98959.50;5073774;27;45549;-69
2023/08/04 10:43:58;;;;;;;;;0.00;0.00;;;;;17.60;79.21;98940.69;5072126;28;45534;-70
2023/08/04 10:46:24;;;;;;;;;0.00;0.00;;;;;17.49;82.07;98950.44;5066675;28;45457;-70
2023/08/04 10:48:50;;;;;;;;;0.00;0.00;;;;;17.40;81.25;98942.16;5063374;28;45570;-70
2023/08/04 10:51:16;;;;;;;;;0.00;0.00;;;;;17.36;82.15;98953.13;5063721;27;45498;-69
2023/08/04 10:53:41;;;;;;;;;0.00;0.00;;;;;17.33;80.66;98950.66;5064429;27;45527;-71
2023/08/04 10:56:07;;;;;;;;;0.00;0.00;;;;;17.32;82.89;98951.63;5073772;28;45461;-73
2023/08/04 10:58:32;;;;;;;;;0.00;0.00;;;;;17.27;83.22;98959.09;5067007;27;45555;-71
2023/08/04 11:00:58;;;;;;;;;0.00;0.00;;;;;17.21;84.04;98951.53;5068301;28;45467;-72
2023/08/04 11:03:36;;;;;;;;;0.00;0.00;;;;;17.09;86.46;98954.06;5064480;28;46561;-72
2023/08/04 11:06:03;;;;;;;;;0.00;0.00;;;;;16.96;88.55;98950.56;5067689;28;45435;-72
2023/08/04 11:08:29;;;;;;;;;0.00;0.00;;;;;16.83;96.94;98979.00;5066542;27;45421;-72
2023/08/04 11:10:56;;;;;;;;;0.00;0.00;;;;;16.57;100.00;98975.41;5089492;27;45868;-71
2023/08/04 11:13:23;;;;;;;;;0.00;0.00;;;;;16.39;100.00;99000.56;5067042;28;47077;-72
2023/08/04 11:15:49;;;;;;;;;0.00;0.00;;;;;16.20;100.00;98976.13;5067155;28;45379;-71
2023/08/04 11:18:20;;;;;;;;;0.00;0.00;;;;;16.10;100.00;98964.34;5066034;28;45310;-72
2023/08/04 11:20:45;;;;;;;;;0.80;0.00;;;;;15.99;100.00;98981.88;5069596;28;45443;-71
2023/08/04 11:23:12;;;;;;;;;0.00;0.00;;;;;15.97;100.00;98972.28;5073437;28;46441;-73
2023/08/04 11:25:39;;;;;;;;;0.00;0.00;;;;;15.90;100.00;98986.94;5075676;27;45456;-75
2023/08/04 11:28:06;;;;;;;;;0.20;0.00;;;;;15.84;100.00;98980.19;5076361;27;45391;-72
2023/08/04 11:30:33;;;;;;;;;0.00;0.00;;;;;15.81;100.00;98979.53;5074779;27;45677;-71